TimeEDT,TemperatureF,Dew PointF,Humidity,Sea Level PressureIn,VisibilityMPH,Wind Direction,Wind SpeedMPH,Gust SpeedMPH,PrecipitationIn,Events,Conditions,WindDirDegrees,DateUTC
12:15 AM,32.0,26.6,80,30.10,10.0,Calm,Calm,-,N/A,,Clear,0,2013-05-14 04:15:00
12:35 AM,32.0,26.6,80,30.10,10.0,Calm,Calm,-,N/A,,Clear,0,2013-05-14 04:35:00
12:55 AM,32.0,26.6,80,30.10,10.0,WSW,3.5,-,N/A,,Clear,240,2013-05-14 04:55:00
1:15 AM,32.0,26.6,80,30.10,10.0,Calm,Calm,-,N/A,,Clear,0,2013-05-14 05:15:00
1:35 AM,32.0,26.6,80,30.10,10.0,Calm,Calm,-,N/A,,Clear,0,2013-05-14 05:35:00
1:55 AM,30.2,26.6,86,30.10,10.0,Calm,Calm,-,N/A,,Clear,0,2013-05-14 05:55:00
2:15 AM,32.0,26.6,80,30.10,10.0,Calm,Calm,-,N/A,,Clear,0,2013-05-14 06:15:00
2:35 AM,30.2,26.6,86,30.10,10.0,Calm,Calm,-,N/A,,Clear,0,2013-05-14 06:35:00
2:55 AM,30.2,26.6,86,30.10,10.0,SSW,4.6,-,N/A,,Clear,210,2013-05-14 06:55:00
3:15 AM,30.2,26.6,86,30.10,10.0,SW,3.5,-,N/A,,Clear,220,2013-05-14 07:15:00
3:35 AM,30.2,26.6,86,30.10,10.0,Calm,Calm,-,N/A,,Clear,0,2013-05-14 07:35:00
3:55 AM,30.2,26.6,86,30.10,10.0,SSW,4.6,-,N/A,,Clear,210,2013-05-14 07:55:00
4:15 AM,30.2,26.6,86,30.10,10.0,Calm,Calm,-,N/A,,Clear,0,2013-05-14 08:15:00
4:35 AM,28.4,26.6,93,30.10,10.0,Calm,Calm,-,N/A,,Clear,0,2013-05-14 08:35:00
4:55 AM,30.2,26.6,86,30.10,10.0,WSW,3.5,-,N/A,,Clear,240,2013-05-14 08:55:00
5:15 AM,30.2,26.6,86,30.09,10.0,SSW,4.6,-,N/A,,Clear,210,2013-05-14 09:15:00
5:35 AM,30.2,26.6,86,30.09,10.0,SSW,4.6,-,N/A,,Clear,210,2013-05-14 09:35:00
5:55 AM,30.2,26.6,86,30.09,10.0,Calm,Calm,-,N/A,,Clear,0,2013-05-14 09:55:00
6:15 AM,30.2,26.6,86,30.10,10.0,Calm,Calm,-,N/A,,Clear,0,2013-05-14 10:15:00
6:35 AM,30.2,26.6,86,30.11,10.0,Calm,Calm,-,N/A,,Clear,0,2013-05-14 10:35:00
6:55 AM,30.2,26.6,86,30.11,10.0,Calm,Calm,-,N/A,,Clear,0,2013-05-14 10:55:00
7:15 AM,30.2,26.6,86,30.11,10.0,Calm,Calm,-,N/A,,Clear,0,2013-05-14 11:15:00
7:35 AM,32.0,26.6,80,30.12,10.0,SW,3.5,-,N/A,,Clear,220,2013-05-14 11:35:00
7:55 AM,32.0,28.4,87,30.12,10.0,SW,3.5,-,N/A,,Clear,220,2013-05-14 11:55:00
8:15 AM,33.8,26.6,75,30.12,10.0,WSW,3.5,-,N/A,,Clear,240,2013-05-14 12:15:00
8:35 AM,35.6,28.4,75,30.12,10.0,SW,4.6,-,N/A,,Scattered Clouds,230,2013-05-14 12:35:00
8:55 AM,35.6,28.4,75,30.12,10.0,SW,4.6,-,N/A,,Scattered Clouds,230,2013-05-14 12:55:00
9:15 AM,37.4,28.4,70,30.11,10.0,SSW,6.9,-,N/A,,Mostly Cloudy,210,2013-05-14 13:15:00
9:35 AM,41.0,26.6,57,30.11,10.0,SW,6.9,-,N/A,,Mostly Cloudy,220,2013-05-14 13:35:00
9:55 AM,41.0,23.0,49,30.11,10.0,SSW,6.9,-,N/A,,Scattered Clouds,200,2013-05-14 13:55:00
10:15 AM,41.0,23.0,49,30.10,10.0,West,3.5,-,N/A,,Scattered Clouds,260,2013-05-14 14:15:00
10:35 AM,42.8,26.6,53,30.09,10.0,SSW,6.9,-,N/A,,Scattered Clouds,210,2013-05-14 14:35:00
10:55 AM,42.8,24.8,49,30.10,10.0,West,4.6,-,N/A,,Scattered Clouds,260,2013-05-14 14:55:00
11:15 AM,44.6,23.0,43,30.10,10.0,SSW,5.8,-,N/A,,Scattered Clouds,210,2013-05-14 15:15:00
11:35 AM,44.6,24.8,46,30.09,10.0,South,8.1,-,N/A,,Scattered Clouds,180,2013-05-14 15:35:00
11:55 AM,46.4,24.8,43,30.09,10.0,SW,6.9,-,N/A,,Mostly Cloudy,220,2013-05-14 15:55:00
12:15 PM,44.6,23.0,43,30.09,10.0,SSW,6.9,-,N/A,,Overcast,200,2013-05-14 16:15:00
12:35 PM,46.4,26.6,46,30.09,10.0,SW,6.9,-,N/A,,Overcast,230,2013-05-14 16:35:00
12:55 PM,46.4,24.8,43,30.09,10.0,Calm,Calm,-,N/A,,Overcast,0,2013-05-14 16:55:00
1:15 PM,46.4,24.8,43,30.08,10.0,SSW,5.8,-,N/A,,Overcast,200,2013-05-14 17:15:00
1:35 PM,46.4,23.0,40,30.08,10.0,WNW,4.6,-,N/A,,Overcast,300,2013-05-14 17:35:00
1:55 PM,50.0,24.8,37,30.08,10.0,NW,4.6,-,N/A,,Overcast,310,2013-05-14 17:55:00
2:15 PM,50.0,24.8,37,30.07,10.0,WSW,6.9,-,N/A,,Overcast,240,2013-05-14 18:15:00
2:35 PM,51.8,26.6,38,30.07,10.0,West,6.9,-,N/A,,Overcast,280,2013-05-14 18:35:00
2:55 PM,50.0,26.6,40,30.06,10.0,WSW,8.1,-,N/A,,Overcast,240,2013-05-14 18:55:00
3:15 PM,50.0,26.6,40,30.04,10.0,SW,6.9,-,N/A,,Overcast,220,2013-05-14 19:15:00
3:35 PM,48.2,26.6,43,30.04,10.0,SW,3.5,-,N/A,,Overcast,220,2013-05-14 19:35:00
3:55 PM,48.2,28.4,46,30.03,10.0,South,9.2,-,N/A,,Overcast,170,2013-05-14 19:55:00
4:15 PM,50.0,30.2,47,30.02,10.0,SSW,6.9,-,N/A,,Overcast,210,2013-05-14 20:15:00
4:35 PM,48.2,28.4,46,30.01,10.0,SW,4.6,-,N/A,,Overcast,230,2013-05-14 20:35:00
4:55 PM,50.0,28.4,43,30.01,10.0,SSE,5.8,-,N/A,,Overcast,160,2013-05-14 20:55:00
5:15 PM,48.2,30.2,50,30.01,10.0,SW,5.8,-,N/A,,Overcast,230,2013-05-14 21:15:00
5:35 PM,50.0,32.0,50,30.00,10.0,SSW,6.9,-,N/A,,Overcast,200,2013-05-14 21:35:00
5:55 PM,50.0,32.0,50,29.99,10.0,SW,5.8,-,N/A,,Overcast,230,2013-05-14 21:55:00
6:15 PM,48.2,32.0,54,29.99,10.0,SSW,5.8,-,N/A,,Overcast,210,2013-05-14 22:15:00
6:35 PM,48.2,32.0,54,29.98,10.0,SSW,6.9,-,N/A,,Overcast,210,2013-05-14 22:35:00
6:55 PM,48.2,32.0,54,29.98,10.0,SSW,4.6,-,N/A,,Overcast,200,2013-05-14 22:55:00
7:15 PM,46.4,32.0,57,29.98,10.0,SSW,6.9,-,N/A,,Overcast,200,2013-05-14 23:15:00
7:35 PM,46.4,32.0,57,29.98,10.0,SSW,5.8,-,N/A,,Overcast,210,2013-05-14 23:35:00
7:55 PM,46.4,32.0,57,29.99,10.0,SSW,5.8,-,N/A,,Overcast,210,2013-05-14 23:55:00
8:15 PM,46.4,33.8,62,30.00,10.0,SW,5.8,-,N/A,,Overcast,220,2013-05-15 00:15:00
8:35 PM,44.6,33.8,66,30.00,10.0,SW,3.5,-,N/A,,Overcast,230,2013-05-15 00:35:00
8:55 PM,44.6,33.8,66,30.00,10.0,SW,6.9,-,N/A,,Overcast,220,2013-05-15 00:55:00
9:15 PM,44.6,33.8,66,30.00,10.0,SW,10.4,-,N/A,,Overcast,220,2013-05-15 01:15:00
9:35 PM,44.6,33.8,66,30.00,10.0,SSW,9.2,-,N/A,,Overcast,210,2013-05-15 01:35:00
9:55 PM,44.6,33.8,66,30.00,10.0,SSW,8.1,-,N/A,,Overcast,200,2013-05-15 01:55:00
10:15 PM,44.6,33.8,66,29.99,10.0,SSW,8.1,-,N/A,,Overcast,200,2013-05-15 02:15:00
10:35 PM,44.6,33.8,66,29.99,10.0,South,6.9,-,N/A,,Overcast,190,2013-05-15 02:35:00
10:55 PM,42.8,35.6,76,29.97,10.0,South,6.9,-,N/A,,Overcast,190,2013-05-15 02:55:00
11:15 PM,42.8,35.6,76,29.97,10.0,SSE,5.8,-,N/A,,Overcast,160,2013-05-15 03:15:00
11:35 PM,42.8,35.6,76,29.96,10.0,South,8.1,-,N/A,,Overcast,180,2013-05-15 03:35:00
11:55 PM,42.8,35.6,76,29.95,10.0,South,6.9,-,N/A,,Overcast,170,2013-05-15 03:55:00